Time;durP1;ratioP1;P1;durP2;ratioP2;P2;SDS_P1;SDS_P2;PMS_P1;PMS_P2;Temp;Humidity;BMP_temperature;BMP_pressure;BME280_temperature;BME280_humidity;BME280_pressure;Samples;Min_cycle;Max_cycle;Signal;HPM_P1;HPM_P2
2022/03/07 00:01:46;;;;;;;;;60.50;48.50;;;;;7.12;40.54;101799.81;5061288;28;45300;-48
2022/03/07 00:04:14;;;;;;;;;65.50;51.25;;;;;7.09;40.65;101801.50;5060984;28;45323;-47
2022/03/07 00:06:39;;;;;;;;;71.75;54.00;;;;;7.09;40.70;101807.59;5061086;28;47122;-45
2022/03/07 00:09:05;;;;;;;;;68.25;52.75;;;;;7.05;40.51;101805.78;5059516;28;45432;-47
2022/03/07 00:11:30;;;;;;;;;67.75;52.25;;;;;7.04;40.52;101797.94;5061178;28;45272;-46
2022/03/07 00:13:56;;;;;;;;;66.50;52.50;;;;;7.02;40.34;101795.31;5061126;28;45236;-47
2022/03/07 00:16:21;;;;;;;;;67.75;51.75;;;;;6.99;40.52;101801.34;5064028;28;46359;-48
2022/03/07 00:18:47;;;;;;;;;69.00;53.75;;;;;6.96;40.74;101801.28;5060975;28;45208;-45
2022/03/07 00:21:12;;;;;;;;;70.00;55.25;;;;;6.95;40.71;101798.66;5060625;28;45375;-48
2022/03/07 00:23:38;;;;;;;;;67.25;52.00;;;;;6.93;40.81;101801.25;5060785;28;45239;-47
2022/03/07 00:26:05;;;;;;;;;68.75;54.25;;;;;6.91;40.65;101802.06;5060496;28;46244;-47
2022/03/07 00:28:30;;;;;;;;;67.75;53.00;;;;;6.88;40.68;101802.00;5060786;28;45406;-46
2022/03/07 00:30:55;;;;;;;;;63.50;48.50;;;;;6.82;40.39;101802.78;5060833;28;45424;-50
2022/03/07 00:33:21;;;;;;;;;70.75;52.75;;;;;6.82;40.71;101808.00;5059581;28;45791;-47
2022/03/07 00:35:46;;;;;;;;;68.00;53.00;;;;;6.79;40.74;101819.28;5060175;28;45394;-49
2022/03/07 00:38:11;;;;;;;;;70.25;55.25;;;;;6.77;40.94;101807.91;5059380;28;45380;-48
2022/03/07 00:40:37;;;;;;;;;66.00;52.75;;;;;6.74;40.80;101814.81;5059146;28;45514;-46
2022/03/07 00:43:06;;;;;;;;;66.75;51.50;;;;;6.73;40.88;101813.94;5060636;28;45415;-48
2022/03/07 00:45:32;;;;;;;;;59.00;48.75;;;;;6.71;40.76;101813.03;5060337;28;45264;-45
2022/03/07 00:47:57;;;;;;;;;68.75;51.00;;;;;6.70;40.88;101819.09;5060784;28;45247;-47
2022/03/07 00:50:22;;;;;;;;;71.00;52.25;;;;;6.66;40.94;101807.72;5060288;28;45315;-47
2022/03/07 00:52:48;;;;;;;;;61.75;50.50;;;;;6.65;40.94;101821.66;5060521;28;45387;-49
2022/03/07 00:55:13;;;;;;;;;66.50;51.50;;;;;6.63;41.05;101817.25;5060051;28;46444;-45
2022/03/07 00:57:38;;;;;;;;;63.25;50.00;;;;;6.60;41.01;101817.16;5059253;28;45555;-47
2022/03/07 01:00:05;;;;;;;;;66.50;50.50;;;;;6.57;40.90;101818.00;5060339;28;45270;-45
2022/03/07 01:02:30;;;;;;;;;67.25;52.00;;;;;6.54;41.23;101809.22;5060197;28;45260;-47
2022/03/07 01:04:56;;;;;;;;;68.00;51.00;;;;;6.51;41.15;101807.41;5041698;28;47238;-44
2022/03/07 01:07:21;;;;;;;;;65.75;53.00;;;;;6.47;41.21;101803.84;5059895;28;45435;-44
2022/03/07 01:09:47;;;;;;;;;62.50;48.00;;;;;6.47;41.03;101805.59;5060006;28;45387;-45
2022/03/07 01:12:12;;;;;;;;;58.75;46.00;;;;;6.44;41.22;101806.44;5058910;28;45273;-48
2022/03/07 01:14:38;;;;;;;;;63.50;52.00;;;;;6.43;41.04;101809.88;5059930;28;46286;-45
2022/03/07 01:17:04;;;;;;;;;58.00;46.25;;;;;6.38;41.13;101806.31;5063142;28;45338;-48
2022/03/07 01:19:29;;;;;;;;;64.25;52.50;;;;;6.34;41.11;101801.88;5059933;28;45184;-44
2022/03/07 01:21:54;;;;;;;;;60.50;48.50;;;;;6.34;41.17;101807.97;5059885;28;45227;-43
2022/03/07 01:24:20;;;;;;;;;63.25;49.00;;;;;6.32;41.20;101800.94;5059610;28;46227;-45
2022/03/07 01:26:46;;;;;;;;;61.75;49.25;;;;;6.30;41.17;101800.03;5059943;28;45150;-47
2022/03/07 01:29:12;;;;;;;;;64.00;50.50;;;;;6.27;41.47;101799.97;5059929;28;45311;-45
2022/03/07 01:31:37;;;;;;;;;59.25;49.75;;;;;6.26;41.09;101795.59;5059007;28;45482;-46
2022/03/07 01:34:03;;;;;;;;;67.75;51.50;;;;;6.23;41.42;101803.38;5059436;28;46188;-45
2022/03/07 01:36:28;;;;;;;;;67.25;52.75;;;;;6.19;41.21;101792.00;5059681;28;45230;-46
2022/03/07 01:38:53;;;;;;;;;62.50;49.50;;;;;6.21;41.21;101808.56;5058672;28;45315;-44
2022/03/07 01:41:19;;;;;;;;;65.25;51.00;;;;;6.18;41.28;101801.53;5059761;28;45651;-44
2022/03/07 01:43:44;;;;;;;;;63.75;51.25;;;;;6.18;41.41;101805.88;5058261;28;47882;-43
2022/03/07 01:46:09;;;;;;;;;61.25;48.00;;;;;6.15;41.29;101798.88;5059763;28;45342;-46
2022/03/07 01:48:36;;;;;;;;;63.75;49.50;;;;;6.13;41.37;101795.34;5059853;28;45349;-44
2022/03/07 01:51:02;;;;;;;;;60.25;49.50;;;;;6.11;41.21;101799.66;5058143;28;45938;-46
2022/03/07 01:53:28;;;;;;;;;60.75;47.25;;;;;6.09;41.28;101793.53;5058251;28;46139;-44
2022/03/07 01:55:56;;;;;;;;;59.25;49.25;;;;;6.03;41.41;101793.41;5059801;28;45303;-45
2022/03/07 01:58:22;;;;;;;;;59.50;48.00;;;;;6.05;41.44;101793.41;5059586;28;45234;-47
2022/03/07 02:00:48;;;;;;;;;61.00;48.25;;;;;6.00;41.46;101782.91;5059482;28;45247;-44
2022/03/07 02:03:13;;;;;;;;;60.50;48.75;;;;;6.00;41.36;101782.91;5057982;28;47384;-47
2022/03/07 02:05:40;;;;;;;;;62.00;48.50;;;;;5.96;41.46;101781.91;5057851;28;45286;-46
2022/03/07 02:08:07;;;;;;;;;57.00;45.50;;;;;5.96;41.67;101781.91;5059329;28;45410;-47
2022/03/07 02:10:33;;;;;;;;;56.50;45.25;;;;;5.94;41.56;101777.53;5059362;28;45467;-45
2022/03/07 02:12:59;;;;;;;;;62.75;48.50;;;;;5.93;41.47;101780.97;5059232;28;46353;-43
2022/03/07 02:15:24;;;;;;;;;63.75;49.75;;;;;5.90;41.55;101771.34;5059859;28;45409;-48
2022/03/07 02:17:50;;;;;;;;;62.25;47.00;;;;;5.88;41.58;101772.16;5060970;28;45259;-45
2022/03/07 02:20:15;;;;;;;;;53.25;46.00;;;;;5.86;41.48;101770.41;5059144;28;45365;-45
2022/03/07 02:22:41;;;;;;;;;55.00;46.00;;;;;5.85;41.73;101772.97;5059014;28;45889;-44
2022/03/07 02:25:07;;;;;;;;;58.50;46.75;;;;;5.82;41.76;101768.59;5059087;28;45190;-47
2022/03/07 02:27:34;;;;;;;;;59.25;46.25;;;;;5.78;41.66;101758.91;5057998;28;45190;-47
2022/03/07 02:30:00;;;;;;;;;63.00;49.25;;;;;5.80;41.68;101758.97;5059153;28;45612;-45
2022/03/07 02:32:26;;;;;;;;;57.50;45.75;;;;;5.75;41.64;101756.25;5059017;28;46618;-45
2022/03/07 02:34:52;;;;;;;;;52.75;43.00;;;;;5.76;41.67;101765.84;5058957;28;45325;-47
2022/03/07 02:37:18;;;;;;;;;54.00;43.00;;;;;5.72;41.70;101753.53;5057723;28;45445;-45
2022/03/07 02:39:43;;;;;;;;;56.25;47.25;;;;;5.71;41.62;101754.41;5059001;28;45389;-47
2022/03/07 02:42:08;;;;;;;;;56.00;41.25;;;;;5.68;41.70;101749.13;5059007;28;45248;-47
2022/03/07 02:44:34;;;;;;;;;55.00;45.00;;;;;5.68;41.81;101754.34;5062153;28;45217;-47
2022/03/07 02:46:59;;;;;;;;;58.75;47.50;;;;;5.66;41.71;101746.50;5062456;28;45389;-44
2022/03/07 02:49:25;;;;;;;;;60.00;48.00;;;;;5.65;41.78;101744.72;5062308;28;45232;-47
2022/03/07 02:51:50;;;;;;;;;59.50;47.25;;;;;5.64;41.68;101742.09;5062166;28;45866;-46
2022/03/07 02:54:15;;;;;;;;;56.75;42.75;;;;;5.61;41.60;101736.78;5060997;28;45255;-48
2022/03/07 02:56:41;;;;;;;;;55.75;42.50;;;;;5.60;41.81;101741.13;5062300;28;45596;-48
2022/03/07 02:59:06;;;;;;;;;55.25;42.50;;;;;5.52;41.94;101733.16;5062286;28;45305;-44
2022/03/07 03:01:31;;;;;;;;;58.00;46.25;;;;;5.57;41.83;101742.78;5062009;28;46145;-44
2022/03/07 03:03:57;;;;;;;;;56.75;44.25;;;;;5.53;42.02;101740.13;5062011;28;45314;-46
2022/03/07 03:06:22;;;;;;;;;57.25;45.25;;;;;5.52;41.96;101734.84;5060958;28;45252;-46
2022/03/07 03:08:48;;;;;;;;;44.75;41.00;;;;;5.51;41.84;101744.41;5061994;28;45486;-46
2022/03/07 03:11:13;;;;;;;;;51.00;40.75;;;;;5.47;42.11;101737.38;5061847;28;46432;-44
2022/03/07 03:13:39;;;;;;;;;57.50;45.50;;;;;5.45;42.12;101731.22;5062105;28;45398;-46
2022/03/07 03:16:05;;;;;;;;;52.50;42.00;;;;;5.44;41.82;101729.47;5064840;28;45443;-45
2022/03/07 03:18:30;;;;;;;;;56.75;44.00;;;;;5.42;41.95;101730.28;5062068;28;45521;-46
2022/03/07 03:20:57;;;;;;;;;60.25;47.75;;;;;5.40;41.91;101727.66;5061608;28;46119;-48
2022/03/07 03:23:22;;;;;;;;;57.75;47.00;;;;;5.39;42.21;101725.88;5060494;28;45297;-46
2022/03/07 03:25:48;;;;;;;;;56.25;45.25;;;;;5.39;42.13;101727.63;5061808;28;45718;-46
2022/03/07 03:28:14;;;;;;;;;62.00;45.75;;;;;5.36;41.93;101720.59;5061853;28;45503;-45
2022/03/07 03:30:39;;;;;;;;;54.25;43.25;;;;;5.36;42.22;101725.81;5061679;28;45222;-48
2022/03/07 03:33:05;;;;;;;;;54.50;44.25;;;;;5.32;42.20;101723.97;5060449;28;45225;-44
2022/03/07 03:35:31;;;;;;;;;57.75;44.25;;;;;5.33;41.92;101743.97;5061608;28;45259;-45
2022/03/07 03:37:56;;;;;;;;;59.50;47.25;;;;;5.30;42.57;101728.28;5060375;28;45755;-44
2022/03/07 03:40:22;;;;;;;;;54.50;43.00;;;;;5.28;42.16;101732.56;5061289;28;46140;-45
2022/03/07 03:42:47;;;;;;;;;56.00;42.50;;;;;5.26;42.34;101729.94;5061615;28;45232;-45
2022/03/07 03:45:14;;;;;;;;;58.00;43.25;;;;;5.26;41.95;101737.75;5061624;28;45865;-44
2022/03/07 03:47:41;;;;;;;;;54.25;44.00;;;;;5.25;42.04;101732.50;5061629;28;45471;-43
2022/03/07 03:50:10;;;;;;;;;50.75;40.75;;;;;5.23;42.13;101735.06;5061038;28;45343;-43
2022/03/07 03:52:35;;;;;;;;;49.25;41.25;;;;;5.19;41.90;101728.91;5061648;28;45273;-44
2022/03/07 03:55:03;;;;;;;;;47.00;41.50;;;;;5.21;42.25;101739.38;5060632;28;45394;-44
2022/03/07 03:57:29;;;;;;;;;54.50;43.00;;;;;5.18;42.06;101737.56;5061440;28;45456;-44
2022/03/07 03:59:56;;;;;;;;;49.00;41.75;;;;;5.17;42.35;101743.63;5061127;28;46203;-46
2022/03/07 04:02:21;;;;;;;;;57.75;45.00;;;;;5.17;42.26;101734.91;5061408;28;45408;-44
2022/03/07 04:04:47;;;;;;;;;50.25;40.50;;;;;5.13;42.20;101733.97;5060947;28;45377;-46
2022/03/07 04:07:12;;;;;;;;;50.50;38.75;;;;;5.13;42.33;101736.59;5061013;28;45342;-44
2022/03/07 04:09:37;;;;;;;;;54.75;44.00;;;;;5.09;42.27;101729.50;5060825;28;45465;-46
2022/03/07 04:12:03;;;;;;;;;51.75;42.25;;;;;5.08;42.47;101735.59;5061187;28;45318;-44
2022/03/07 04:14:28;;;;;;;;;56.00;45.00;;;;;5.06;42.42;101734.66;5061175;28;45455;-44
2022/03/07 04:16:54;;;;;;;;;52.75;42.75;;;;;5.05;42.11;101735.50;5062924;28;45470;-44
2022/03/07 04:19:20;;;;;;;;;53.00;42.25;;;;;5.02;42.44;101736.31;5060508;28;46237;-46
2022/03/07 04:21:46;;;;;;;;;60.00;45.00;;;;;4.98;42.25;101734.47;5060908;28;45217;-47
2022/03/07 04:24:12;;;;;;;;;51.75;42.75;;;;;4.98;42.54;101733.59;5060727;28;45295;-47
2022/03/07 04:26:39;;;;;;;;;57.75;43.50;;;;;4.97;42.52;101742.22;5061067;28;45427;-45
2022/03/07 04:29:08;;;;;;;;;55.25;42.00;;;;;4.94;42.33;101739.56;5060613;28;46072;-44
2022/03/07 04:31:36;;;;;;;;;54.50;41.75;;;;;4.94;42.60;101739.56;5060768;28;45336;-48
2022/03/07 04:34:03;;;;;;;;;53.75;41.75;;;;;4.91;41.99;101742.97;5059295;28;45249;-46
2022/03/07 04:36:29;;;;;;;;;55.00;42.75;;;;;4.90;42.48;101735.13;5060750;28;45453;-48
2022/03/07 04:38:54;;;;;;;;;53.50;42.75;;;;;4.85;42.35;101738.47;5060465;28;45518;-48
2022/03/07 04:41:20;;;;;;;;;57.00;43.50;;;;;4.87;42.48;101739.41;5060842;28;45360;-48
2022/03/07 04:43:45;;;;;;;;;55.00;43.50;;;;;4.85;42.23;101743.69;5060654;28;45447;-48
2022/03/07 04:46:11;;;;;;;;;50.75;42.00;;;;;4.82;42.53;101741.03;5060684;28;45347;-47
2022/03/07 04:48:36;;;;;;;;;51.75;42.25;;;;;4.83;42.70;101745.41;5060074;28;46112;-46
2022/03/07 04:51:02;;;;;;;;;56.25;44.25;;;;;4.82;42.59;101748.84;5060592;28;45276;-48
2022/03/07 04:53:28;;;;;;;;;53.00;40.75;;;;;4.78;42.41;101747.00;5060519;28;45341;-46
2022/03/07 04:55:53;;;;;;;;;47.75;39.75;;;;;4.75;42.35;101746.91;5060542;28;45482;-46
2022/03/07 04:58:19;;;;;;;;;50.50;40.00;;;;;4.73;42.63;101753.81;5060178;28;45370;-47
2022/03/07 05:00:44;;;;;;;;;56.25;42.00;;;;;4.72;42.66;101747.72;5058940;28;45318;-50
2022/03/07 05:03:10;;;;;;;;;53.00;40.50;;;;;4.71;42.70;101752.88;5060363;28;45490;-47
2022/03/07 05:05:35;;;;;;;;;52.00;43.50;;;;;4.66;42.93;101744.06;5060054;28;45640;-48
2022/03/07 05:08:00;;;;;;;;;44.50;36.50;;;;;4.60;42.57;101746.50;5057704;28;45962;-49
2022/03/07 05:10:26;;;;;;;;;51.25;43.00;;;;;4.68;42.29;101756.28;5060107;28;45313;-45
2022/03/07 05:12:51;;;;;;;;;47.50;38.75;;;;;4.66;42.74;101757.97;5060180;28;45593;-44
2022/03/07 05:15:17;;;;;;;;;52.50;43.00;;;;;4.64;42.77;101759.66;5060636;28;45280;-45
2022/03/07 05:17:44;;;;;;;;;48.50;38.50;;;;;4.61;42.79;101762.16;5062469;28;45260;-45
2022/03/07 05:20:11;;;;;;;;;60.25;44.25;;;;;4.61;42.55;101756.97;5059890;28;45355;-47
2022/03/07 05:22:37;;;;;;;;;50.75;40.50;;;;;4.58;42.96;101754.28;5059883;28;45352;-45
2022/03/07 05:25:04;;;;;;;;;47.75;39.00;;;;;4.58;42.50;101763.81;5060063;28;45273;-45
2022/03/07 05:27:29;;;;;;;;;57.00;43.25;;;;;4.56;42.62;101753.34;5059639;28;45225;-47
2022/03/07 05:29:55;;;;;;;;;46.00;38.25;;;;;4.54;42.62;101753.31;5060105;28;45181;-46
2022/03/07 05:32:20;;;;;;;;;52.25;42.25;;;;;4.54;42.68;101760.22;5059889;28;45190;-46
2022/03/07 05:34:45;;;;;;;;;49.50;43.00;;;;;4.53;42.74;101761.09;5058745;28;45174;-44
2022/03/07 05:37:11;;;;;;;;;49.50;40.75;;;;;4.51;42.76;101760.16;5059518;28;46134;-45
2022/03/07 05:39:36;;;;;;;;;55.75;40.50;;;;;4.49;43.12;101754.94;5059705;28;45245;-46
2022/03/07 05:42:02;;;;;;;;;46.25;38.50;;;;;4.49;43.16;101756.63;5059741;28;45457;-47
2022/03/07 05:44:27;;;;;;;;;53.50;43.25;;;;;4.46;42.73;101749.63;5059894;28;45314;-48
2022/03/07 05:46:53;;;;;;;;;51.50;41.00;;;;;4.47;42.82;101753.13;5059399;28;45475;-47
2022/03/07 05:49:18;;;;;;;;;56.75;44.00;;;;;4.46;42.69;101753.97;5059339;28;45261;-48
2022/03/07 05:51:44;;;;;;;;;46.00;37.25;;;;;4.45;43.40;101757.41;5058433;28;45310;-48
2022/03/07 05:54:10;;;;;;;;;49.50;43.25;;;;;4.42;43.10;101753.00;5059617;28;45497;-46
2022/03/07 05:56:35;;;;;;;;;66.50;52.50;;;;;4.41;42.71;101753.81;5059521;28;46362;-47
2022/03/07 05:59:01;;;;;;;;;76.33;60.00;;;;;4.41;42.93;101760.75;5059449;28;45379;-49
2022/03/07 06:01:26;;;;;;;;;59.75;49.50;;;;;4.39;43.13;101758.13;5059774;28;45315;-48
2022/03/07 06:03:52;;;;;;;;;52.00;42.50;;;;;4.39;43.11;101760.72;5058180;28;45359;-49
2022/03/07 06:06:17;;;;;;;;;56.75;45.50;;;;;4.38;43.19;101762.44;5058091;28;46929;-50
2022/03/07 06:08:42;;;;;;;;;57.75;41.25;;;;;4.38;42.79;101764.16;5059241;28;45311;-49
2022/03/07 06:11:08;;;;;;;;;50.75;43.00;;;;;4.36;43.01;101768.44;5059092;28;45296;-45
2022/03/07 06:13:34;;;;;;;;;58.25;43.25;;;;;4.35;43.14;101766.66;5059238;28;45578;-47
2022/03/07 06:15:59;;;;;;;;;56.50;48.25;;;;;4.33;43.04;101764.03;5054036;28;46001;-44
2022/03/07 06:18:25;;;;;;;;;61.25;48.25;;;;;4.33;43.25;101769.22;5056475;28;45394;-47
2022/03/07 06:20:50;;;;;;;;;58.25;47.00;;;;;4.32;42.92;101767.47;5053618;28;45369;-45
2022/03/07 06:23:16;;;;;;;;;59.25;45.75;;;;;4.30;43.14;101768.25;5060874;28;45496;-46
2022/03/07 06:25:41;;;;;;;;;63.75;47.25;;;;;4.30;43.02;101773.47;5061093;28;47139;-49
2022/03/07 06:28:07;;;;;;;;;55.25;41.50;;;;;4.29;43.06;101780.41;5061481;28;45929;-47
2022/03/07 06:30:32;;;;;;;;;55.25;42.75;;;;;4.29;43.25;101771.69;5062447;28;45372;-47
2022/03/07 06:32:57;;;;;;;;;51.25;41.25;;;;;4.29;42.83;101779.50;5059451;28;45223;-49
2022/03/07 06:35:23;;;;;;;;;60.75;44.50;;;;;4.28;43.37;101775.16;5061375;28;45993;-47
2022/03/07 06:37:50;;;;;;;;;50.25;43.00;;;;;4.28;43.33;101764.75;5062541;28;45247;-46
2022/03/07 06:40:17;;;;;;;;;42.75;38.75;;;;;4.27;43.31;101776.88;5062263;28;45446;-47
2022/03/07 06:42:43;;;;;;;;;58.25;44.25;;;;;4.27;43.38;101778.59;5062480;28;45381;-44
2022/03/07 06:45:12;;;;;;;;;47.25;36.75;;;;;4.26;43.02;101775.09;5062250;28;46134;-45
2022/03/07 06:47:37;;;;;;;;;59.25;45.75;;;;;4.26;43.40;101780.31;5062240;28;45231;-49
2022/03/07 06:50:03;;;;;;;;;41.00;37.00;;;;;4.06;43.42;101757.22;5058697;28;45414;-46
2022/03/07 06:52:29;;;;;;;;;52.25;41.25;;;;;4.26;42.97;101798.50;5059863;28;45272;-46
2022/03/07 06:54:54;;;;;;;;;50.75;37.50;;;;;4.25;43.41;101795.88;5062060;28;45449;-46
2022/03/07 06:57:21;;;;;;;;;45.50;40.25;;;;;4.22;43.21;101786.25;5061923;28;45389;-46
2022/03/07 06:59:47;;;;;;;;;49.50;40.00;;;;;4.22;43.33;101787.13;5062301;28;45346;-46
2022/03/07 07:02:13;;;;;;;;;57.00;44.75;;;;;4.21;43.34;101776.69;5061841;28;45320;-49
2022/03/07 07:04:38;;;;;;;;;50.00;41.00;;;;;4.22;43.42;101776.72;5061866;28;45397;-46
2022/03/07 07:07:03;;;;;;;;;60.75;46.00;;;;;4.20;43.52;101777.53;5061663;28;45408;-46
2022/03/07 07:09:29;;;;;;;;;52.50;43.50;;;;;4.22;43.61;101787.13;5062156;28;45597;-46
2022/03/07 07:11:54;;;;;;;;;53.00;43.75;;;;;4.21;43.52;101780.19;5061833;28;45350;-45
2022/03/07 07:14:19;;;;;;;;;58.25;45.75;;;;;4.22;43.22;101781.06;5062081;28;46103;-44
2022/03/07 07:16:45;;;;;;;;;41.00;35.25;;;;;4.23;43.21;101783.69;5060029;28;45388;-48
2022/03/07 07:19:10;;;;;;;;;56.00;43.50;;;;;4.23;43.23;101777.63;5061699;28;45253;-47
2022/03/07 07:21:35;;;;;;;;;55.00;44.00;;;;;4.23;43.28;101778.50;5061614;28;45228;-49
2022/03/07 07:24:01;;;;;;;;;52.75;43.50;;;;;4.23;43.35;101773.28;5058756;28;45484;-49
2022/03/07 07:26:26;;;;;;;;;58.00;47.50;;;;;4.25;43.81;101772.47;5059495;28;45458;-47
2022/03/07 07:28:52;;;;;;;;;56.25;43.00;;;;;4.25;43.72;101777.66;5060168;28;45288;-46
2022/03/07 07:31:17;;;;;;;;;52.50;41.00;;;;;4.27;43.72;101778.59;5060425;28;45247;-45
2022/03/07 07:33:44;;;;;;;;;53.50;42.50;;;;;4.27;43.78;101773.41;5060975;28;46427;-47
2022/03/07 07:36:09;;;;;;;;;53.50;45.00;;;;;4.29;43.47;101787.31;5061419;28;45401;-49
2022/03/07 07:38:34;;;;;;;;;54.50;43.25;;;;;4.30;43.72;101778.66;5061510;28;45355;-52
2022/03/07 07:41:00;;;;;;;;;48.50;41.75;;;;;4.30;43.49;101778.66;5061190;28;45381;-51
2022/03/07 07:43:25;;;;;;;;;58.50;45.00;;;;;4.32;43.48;101788.28;5061118;28;45360;-49
2022/03/07 07:45:50;;;;;;;;;56.75;46.25;;;;;4.32;43.44;101780.47;5061047;28;45476;-50
2022/03/07 07:48:16;;;;;;;;;59.75;45.50;;;;;4.33;43.71;101779.66;5061205;28;45453;-51
2022/03/07 07:50:41;;;;;;;;;55.25;44.75;;;;;4.34;43.62;101781.41;5063956;28;45508;-54
2022/03/07 07:53:06;;;;;;;;;51.00;41.75;;;;;4.35;43.79;101775.38;5062848;28;47983;-50
2022/03/07 07:55:32;;;;;;;;;46.75;38.75;;;;;4.37;43.49;101781.47;5061007;28;45439;-51
2022/03/07 07:57:57;;;;;;;;;48.50;41.50;;;;;4.37;43.40;101778.88;5061179;28;45433;-50
2022/03/07 08:00:23;;;;;;;;;50.00;42.00;;;;;4.38;43.55;101779.78;5060697;28;45379;-52
2022/03/07 08:02:50;;;;;;;;;50.00;42.00;;;;;4.42;43.60;101784.22;5060991;28;46401;-54
2022/03/07 08:05:19;;;;;;;;;50.50;40.25;;;;;4.42;43.87;101776.41;5059310;28;45489;-48
2022/03/07 08:07:46;;;;;;;;;45.75;39.25;;;;;4.45;43.71;101789.50;5060796;28;45347;-52
2022/03/07 08:10:13;;;;;;;;;49.50;43.00;;;;;4.46;44.03;101786.06;5060555;28;45418;-51
2022/03/07 08:12:39;;;;;;;;;39.75;36.25;;;;;4.49;43.73;101785.25;5060578;28;46037;-52
2022/03/07 08:15:06;;;;;;;;;51.25;42.00;;;;;4.53;43.66;101777.59;5060642;28;45220;-53
2022/03/07 08:17:32;;;;;;;;;53.50;40.00;;;;;4.56;43.56;101779.41;5057248;28;45420;-50
2022/03/07 08:19:57;;;;;;;;;51.25;43.00;;;;;4.58;43.60;101779.44;5060523;28;45291;-50
2022/03/07 08:22:23;;;;;;;;;55.00;42.75;;;;;4.61;43.48;101780.41;5060648;28;45166;-48
2022/03/07 08:24:48;;;;;;;;;50.50;42.50;;;;;4.63;43.60;101788.25;5056046;28;45513;-49
2022/03/07 08:27:13;;;;;;;;;51.25;41.00;;;;;4.67;43.81;101785.78;5060689;28;45212;-50
2022/03/07 08:29:39;;;;;;;;;51.25;41.25;;;;;4.71;43.67;101781.53;5059236;28;45799;-55
2022/03/07 08:32:04;;;;;;;;;50.00;40.25;;;;;4.73;43.61;101772.06;5058924;28;47927;-53
2022/03/07 08:34:31;;;;;;;;;53.25;43.00;;;;;4.74;43.46;101776.38;5060283;28;45295;-48
2022/03/07 08:36:57;;;;;;;;;51.25;40.00;;;;;4.80;43.53;101776.56;5060595;28;45502;-50
2022/03/07 08:39:22;;;;;;;;;57.75;45.25;;;;;4.83;43.63;101776.66;5060214;28;45520;-49
2022/03/07 08:41:47;;;;;;;;;50.00;39.50;;;;;4.87;43.86;101770.66;5060043;28;46053;-48
2022/03/07 08:44:13;;;;;;;;;51.25;40.00;;;;;4.90;43.59;101771.59;5058983;28;45339;-48
2022/03/07 08:46:39;;;;;;;;;54.00;40.00;;;;;4.96;43.47;101770.03;5060434;28;45303;-51
2022/03/07 08:49:05;;;;;;;;;51.00;41.50;;;;;5.00;43.86;101760.56;5060122;28;45474;-48
2022/03/07 08:51:30;;;;;;;;;51.50;42.25;;;;;5.08;43.86;101756.44;5065704;28;47938;-49
2022/03/07 08:53:55;;;;;;;;;45.75;38.25;;;;;5.14;43.70;101760.91;5060083;28;45145;-51
2022/03/07 08:56:21;;;;;;;;;57.50;43.00;;;;;5.20;43.52;101755.84;5058897;28;45433;-48
2022/03/07 08:58:46;;;;;;;;;48.00;38.00;;;;;5.28;43.60;101754.31;5058982;28;45553;-50
2022/03/07 09:01:13;;;;;;;;;48.50;39.00;;;;;5.33;43.77;101752.69;5058572;28;47446;-51
2022/03/07 09:03:38;;;;;;;;;54.25;41.00;;;;;5.41;43.65;101754.59;5060015;28;45304;-48
2022/03/07 09:06:04;;;;;;;;;51.00;40.50;;;;;5.46;43.74;101753.84;5059032;28;45445;-53
2022/03/07 09:08:29;;;;;;;;;45.75;38.50;;;;;5.47;43.53;101741.69;5058781;28;45474;-50
2022/03/07 09:10:55;;;;;;;;;48.00;38.00;;;;;5.61;43.56;101753.31;5059697;28;46205;-49
2022/03/07 09:13:20;;;;;;;;;54.50;38.25;;;;;5.69;43.66;101758.72;5054253;28;45446;-51
2022/03/07 09:15:47;;;;;;;;;45.75;36.75;;;;;5.79;43.35;101755.44;5056201;28;45869;-50
2022/03/07 09:18:15;;;;;;;;;47.00;38.00;;;;;5.86;43.34;101749.53;5058451;28;46027;-52
2022/03/07 09:20:40;;;;;;;;;50.25;39.00;;;;;5.94;43.42;101752.28;5059604;28;45430;-51
2022/03/07 09:23:06;;;;;;;;;49.75;39.50;;;;;6.06;43.49;101746.47;5060002;28;45224;-50
2022/03/07 09:25:31;;;;;;;;;49.50;38.00;;;;;6.16;43.38;101747.53;5054819;28;45500;-51
2022/03/07 09:27:57;;;;;;;;;49.75;38.75;;;;;6.26;43.28;101751.22;5060058;28;45497;-53
2022/03/07 09:30:23;;;;;;;;;39.75;37.00;;;;;6.33;43.22;101745.28;5059305;28;45908;-52
2022/03/07 09:32:49;;;;;;;;;39.75;35.00;;;;;6.46;43.08;101742.03;5058460;28;45737;-52
2022/03/07 09:35:15;;;;;;;;;46.25;38.25;;;;;6.57;43.27;101744.84;5059465;28;45379;-51
2022/03/07 09:37:41;;;;;;;;;47.50;37.75;;;;;6.68;43.07;101745.06;5059489;28;45344;-52
2022/03/07 09:40:07;;;;;;;;;42.50;37.00;;;;;6.80;43.01;101741.78;5059121;28;45328;-48
2022/03/07 09:42:32;;;;;;;;;47.25;39.25;;;;;6.90;43.10;101737.59;5059557;28;45318;-52
2022/03/07 09:44:58;;;;;;;;;47.00;37.50;;;;;7.01;42.97;101736.03;5059607;28;45301;-52
2022/03/07 09:47:25;;;;;;;;;47.25;37.75;;;;;7.12;43.00;101741.44;5059264;28;45414;-49
2022/03/07 09:49:51;;;;;;;;;42.75;36.75;;;;;7.23;42.90;101732.03;5059076;28;46192;-52
2022/03/07 09:52:17;;;;;;;;;42.25;36.75;;;;;7.33;42.82;101735.66;5059598;28;45720;-52
2022/03/07 09:54:42;;;;;;;;;39.00;36.25;;;;;7.45;42.81;101733.22;5062899;28;45225;-53
2022/03/07 09:57:07;;;;;;;;;46.25;35.50;;;;;7.55;43.01;101731.63;5063077;28;45182;-52
2022/03/07 09:59:34;;;;;;;;;42.25;36.25;;;;;7.65;42.56;101722.19;5062801;28;45922;-51
2022/03/07 10:02:03;;;;;;;;;41.50;34.75;;;;;7.76;42.57;101720.59;5062764;28;45439;-49
2022/03/07 10:04:30;;;;;;;;;43.00;34.00;;;;;7.87;42.66;101720.69;5062737;28;45477;-53
2022/03/07 10:06:56;;;;;;;;;48.50;36.50;;;;;7.95;42.54;101726.06;5062690;28;45464;-50
2022/03/07 10:09:23;;;;;;;;;45.25;36.25;;;;;8.06;42.46;101736.63;5062503;28;45463;-51
2022/03/07 10:11:54;;;;;;;;;34.00;30.75;;;;;8.16;42.46;101720.16;5062850;28;45177;-50
2022/03/07 10:14:31;;;;;;;;;46.50;37.75;;;;;8.23;42.36;101718.53;5062809;28;45235;-51
2022/03/07 10:16:57;;;;;;;;;35.00;34.00;;;;;8.33;42.18;101719.47;5086752;27;46444;-53
2022/03/07 10:19:24;;;;;;;;;40.50;35.75;;;;;8.43;42.32;101706.50;5062131;28;45894;-51
2022/03/07 10:21:52;;;;;;;;;35.50;33.25;;;;;8.52;42.12;101710.13;5062796;28;45230;-50
2022/03/07 10:24:18;;;;;;;;;44.00;36.25;;;;;8.66;42.16;101708.50;5057777;28;45519;-51
2022/03/07 10:26:44;;;;;;;;;38.75;35.50;;;;;8.76;42.04;101705.09;5061322;28;45461;-49
2022/03/07 10:29:10;;;;;;;;;39.75;34.00;;;;;8.86;42.13;101700.81;5062291;28;46349;-48
2022/03/07 10:31:37;;;;;;;;;42.75;35.25;;;;;8.97;42.12;101708.78;5062451;28;45250;-48
2022/03/07 10:34:05;;;;;;;;;44.50;36.00;;;;;9.09;42.12;101702.72;5062296;28;45444;-51
2022/03/07 10:36:39;;;;;;;;;48.50;36.25;;;;;9.23;42.00;101702.81;5062742;28;45331;-52
2022/03/07 10:39:06;;;;;;;;;47.25;38.75;;;;;9.32;41.99;101705.53;5057790;28;46047;-49
2022/03/07 10:41:36;;;;;;;;;48.75;37.50;;;;;9.43;41.88;101695.97;5062445;28;46193;-49
2022/03/07 10:44:04;;;;;;;;;38.75;31.50;;;;;9.54;41.80;101703.03;5062596;28;45598;-47
2022/03/07 10:46:30;;;;;;;;;43.75;36.00;;;;;9.64;41.52;101702.19;5062197;28;45514;-49
2022/03/07 10:48:55;;;;;;;;;44.75;37.25;;;;;9.74;41.55;101698.75;5043908;28;47006;-51
2022/03/07 10:51:21;;;;;;;;;51.75;39.25;;;;;9.83;41.53;101691.78;5067895;28;45416;-52
2022/03/07 10:53:47;;;;;;;;;51.25;41.00;;;;;9.97;41.45;101692.69;5062409;28;45497;-48
2022/03/07 10:56:15;;;;;;;;;47.50;37.75;;;;;10.10;41.53;101685.75;5061910;28;45380;-50
2022/03/07 10:58:52;;;;;;;;;42.00;36.50;;;;;10.23;41.47;101684.03;5061874;28;45279;-48
2022/03/07 11:01:32;;;;;;;;;45.25;36.75;;;;;10.37;41.51;101684.97;5061866;28;45296;-51
2022/03/07 11:03:58;;;;;;;;;41.75;36.25;;;;;10.53;41.33;101685.00;5062037;28;45408;-53
2022/03/07 11:06:27;;;;;;;;;37.50;32.00;;;;;10.66;41.19;101672.75;5061850;28;45423;-54
2022/03/07 11:08:54;;;;;;;;;37.25;32.25;;;;;10.79;41.20;101681.50;5061666;28;45346;-50
2022/03/07 11:11:21;;;;;;;;;37.75;33.50;;;;;10.91;41.03;101691.16;5061709;28;45383;-48